BAW3459 EGSS-VHHH
Flight info
| Callsign | BAW3459 |
|---|---|
| Flight time | N/A |
| Altitude | 29000 |
| Route | CLN P44 RATLO M197 REDFA L620 TACHA DCT NOMKA L620 SUVUT/N0493F310 L620 OMELO DCT EVIKU DCT ROMIS DCT DEMOP DCT NARKA DCT IPTOL DCT UDROS UM859 KARDE UL851 ERIDU/N0495F330 UL851 TBN UN61 NOLGA N61 LAGAS M747 SUBUT T916 BALUN/K0906F330 T916 KUNAS Z627 BORIS N147 AGERA/K0902F350 N147 ELAHA Z621 ARBOL L728 KAMUD/K0898S1070 W186 SADAN Y1 MEPEP/K0902S1130 Y1 OMBON W245 OVRAL B330 DAGDI W234 NIXID B330 POU R473 SIERA |
| Aircraft | B744/H-SDE3FGHIM1M2RWXY/LB1 |
Departure
| Time | 2026-05-04 18:49 |
|---|---|
| Airport | London Stansted Airport (EGSS) |
Arrival
| Time | N/A |
|---|---|
| Airport | Hong Kong International Airport (VHHH) |
| Time | Latitude | Longitude | Altitude | Speed | Heading |
|---|---|---|---|---|---|
| 2026-05-04 18:00 | 51.88690 | 0.25233 | 354 ft | 0 kts | 225° |
| 2026-05-04 18:38 | 51.88693 | 0.25238 | 354 ft | 3 kts | 225° |
| 2026-05-04 18:38 | 51.88712 | 0.25275 | 362 ft | 4 kts | 244° |
| 2026-05-04 18:38 | 51.88719 | 0.25324 | 364 ft | 4 kts | 274° |
| 2026-05-04 18:39 | 51.88709 | 0.25372 | 364 ft | 5 kts | 304° |
| 2026-05-04 18:39 | 51.88698 | 0.25394 | 363 ft | 0 kts | 313° |
| 2026-05-04 18:41 | 51.88700 | 0.25390 | 362 ft | 2 kts | 313° |
| 2026-05-04 18:41 | 51.88721 | 0.25363 | 363 ft | 5 kts | 321° |
| 2026-05-04 18:42 | 51.88757 | 0.25316 | 363 ft | 8 kts | 321° |
| 2026-05-04 18:42 | 51.88807 | 0.25249 | 363 ft | 10 kts | 318° |
| 2026-05-04 18:42 | 51.88865 | 0.25157 | 361 ft | 12 kts | 315° |
| 2026-05-04 18:42 | 51.88932 | 0.25044 | 359 ft | 16 kts | 307° |
| 2026-05-04 18:43 | 51.88980 | 0.24928 | 358 ft | 14 kts | 302° |
| 2026-05-04 18:43 | 51.89029 | 0.24831 | 361 ft | 8 kts | 299° |
| 2026-05-04 18:43 | 51.89011 | 0.24728 | 360 ft | 12 kts | 230° |
| 2026-05-04 18:43 | 51.88941 | 0.24629 | 360 ft | 14 kts | 223° |
| 2026-05-04 18:44 | 51.88862 | 0.24499 | 361 ft | 17 kts | 222° |
| 2026-05-04 18:44 | 51.88799 | 0.24407 | 360 ft | 19 kts | 222° |
| 2026-05-04 18:44 | 51.88648 | 0.24183 | 360 ft | 24 kts | 222° |
| 2026-05-04 18:44 | 51.88517 | 0.23987 | 360 ft | 26 kts | 222° |
| 2026-05-04 18:45 | 51.88376 | 0.23775 | 359 ft | 28 kts | 223° |
| 2026-05-04 18:45 | 51.88231 | 0.23556 | 358 ft | 30 kts | 223° |
| 2026-05-04 18:45 | 51.88076 | 0.23322 | 356 ft | 31 kts | 222° |
| 2026-05-04 18:45 | 51.87916 | 0.23087 | 356 ft | 30 kts | 223° |
| 2026-05-04 18:46 | 51.87757 | 0.22849 | 356 ft | 31 kts | 223° |
| 2026-05-04 18:46 | 51.87603 | 0.22615 | 358 ft | 27 kts | 223° |
| 2026-05-04 18:46 | 51.87472 | 0.22416 | 357 ft | 24 kts | 223° |
| 2026-05-04 18:46 | 51.87408 | 0.22315 | 356 ft | 3 kts | 240° |
| 2026-05-04 18:47 | 51.87399 | 0.22267 | 357 ft | 6 kts | 270° |
| 2026-05-04 18:47 | 51.87413 | 0.22189 | 357 ft | 9 kts | 307° |
| 2026-05-04 18:47 | 51.87455 | 0.22101 | 357 ft | 12 kts | 309° |
| 2026-05-04 18:47 | 51.87504 | 0.22019 | 355 ft | 7 kts | 333° |
| 2026-05-04 18:48 | 51.87540 | 0.22030 | 352 ft | 1 kts | 44° |
| 2026-05-04 18:48 | 51.87550 | 0.22048 | 354 ft | 3 kts | 44° |
| 2026-05-04 18:48 | 51.87588 | 0.22105 | 354 ft | 16 kts | 43° |
| 2026-05-04 18:48 | 51.87850 | 0.22502 | 355 ft | 85 kts | 43° |
| 2026-05-04 18:49 | 51.88433 | 0.23369 | 355 ft | 143 kts | 43° |
| 2026-05-04 18:49 | 51.89243 | 0.24584 | 356 ft | 174 kts | 43° |
| 2026-05-04 18:49 | 51.90196 | 0.26043 | 634 ft | 194 kts | 43° |
| 2026-05-04 18:49 | 51.90965 | 0.27885 | 1299 ft | 178 kts | 71° |
| 2026-05-04 18:50 | 51.91006 | 0.30063 | 1730 ft | 201 kts | 102° |
| 2026-05-04 18:50 | 51.90602 | 0.32238 | 2030 ft | 210 kts | 105° |
| 2026-05-04 18:50 | 51.90139 | 0.34571 | 2410 ft | 217 kts | 109° |
| 2026-05-04 18:50 | 51.89597 | 0.37012 | 2938 ft | 232 kts | 107° |
| 2026-05-04 18:51 | 51.89040 | 0.39648 | 3445 ft | 233 kts | 107° |
| 2026-05-04 18:51 | 51.88422 | 0.42413 | 3868 ft | 271 kts | 110° |
| 2026-05-04 18:51 | 51.87681 | 0.45354 | 4066 ft | 278 kts | 111° |
| 2026-05-04 18:51 | 51.86879 | 0.48446 | 3938 ft | 316 kts | 111° |
| 2026-05-04 18:52 | 51.86061 | 0.51579 | 4327 ft | 292 kts | 111° |
| 2026-05-04 18:52 | 51.85244 | 0.54709 | 5168 ft | 296 kts | 112° |
| 2026-05-04 18:52 | 51.84421 | 0.57874 | 5791 ft | 318 kts | 112° |
| 2026-05-04 18:52 | 51.83655 | 0.61136 | 6202 ft | 302 kts | 102° |
| 2026-05-04 18:53 | 51.83438 | 0.64699 | 6887 ft | 314 kts | 91° |
| 2026-05-04 18:53 | 51.83359 | 0.68249 | 7740 ft | 307 kts | 90° |
| 2026-05-04 18:53 | 51.83332 | 0.71820 | 8444 ft | 309 kts | 89° |
| 2026-05-04 18:53 | 51.83387 | 0.75486 | 9024 ft | 330 kts | 86° |
| 2026-05-04 18:54 | 51.83535 | 0.79263 | 9590 ft | 330 kts | 86° |
| 2026-05-04 18:54 | 51.83705 | 0.83087 | 10211 ft | 357 kts | 86° |
| 2026-05-04 18:54 | 51.83879 | 0.87059 | 10597 ft | 359 kts | 87° |
| 2026-05-04 18:54 | 51.84035 | 0.91224 | 10934 ft | 405 kts | 87° |
| 2026-05-04 18:55 | 51.84186 | 0.95591 | 11240 ft | 401 kts | 87° |
| 2026-05-04 18:55 | 51.84499 | 1.04861 | 11955 ft | 433 kts | 87° |
| 2026-05-04 18:55 | 51.84664 | 1.09636 | 12423 ft | 436 kts | 87° |
| 2026-05-04 18:56 | 51.84931 | 1.14357 | 12891 ft | 427 kts | 79° |
| 2026-05-04 18:56 | 51.85794 | 1.19015 | 13396 ft | 434 kts | 69° |
| 2026-05-04 18:56 | 51.86954 | 1.23559 | 13874 ft | 431 kts | 66° |
| 2026-05-04 18:56 | 51.88214 | 1.28070 | 14352 ft | 446 kts | 65° |
| 2026-05-04 18:57 | 51.89082 | 1.31101 | 14668 ft | 444 kts | 65° |
| 2026-05-04 18:57 | 51.90377 | 1.35628 | 15131 ft | 459 kts | 65° |
| 2026-05-04 18:57 | 51.91661 | 1.40207 | 15579 ft | 471 kts | 65° |
| 2026-05-04 18:57 | 51.92909 | 1.44753 | 16003 ft | 447 kts | 66° |
| 2026-05-04 18:58 | 51.94166 | 1.49405 | 16427 ft | 447 kts | 66° |
| 2026-05-04 18:58 | 51.95417 | 1.54091 | 16848 ft | 443 kts | 66° |
| 2026-05-04 18:58 | 51.96669 | 1.58808 | 17233 ft | 450 kts | 66° |
| 2026-05-04 18:58 | 51.97929 | 1.63570 | 17617 ft | 452 kts | 67° |
| 2026-05-04 18:59 | 51.99126 | 1.68334 | 17986 ft | 480 kts | 72° |
| 2026-05-04 18:59 | 51.99992 | 1.73359 | 18360 ft | 495 kts | 75° |
| 2026-05-04 18:59 | 52.00796 | 1.78401 | 18721 ft | 452 kts | 76° |
| 2026-05-04 18:59 | 52.01576 | 1.83471 | 19061 ft | 452 kts | 76° |
| 2026-05-04 19:00 | 52.02353 | 1.88594 | 19405 ft | 468 kts | 77° |
| 2026-05-04 19:00 | 52.03128 | 1.93723 | 19737 ft | 479 kts | 76° |
| 2026-05-04 19:00 | 52.03910 | 1.98872 | 20065 ft | 484 kts | 76° |
| 2026-05-04 19:00 | 52.04695 | 2.04030 | 20383 ft | 467 kts | 76° |
| 2026-05-04 19:01 | 52.05487 | 2.09213 | 20693 ft | 486 kts | 76° |
| 2026-05-04 19:01 | 52.06282 | 2.14426 | 21014 ft | 502 kts | 76° |
| 2026-05-04 19:01 | 52.07084 | 2.19692 | 21299 ft | 464 kts | 76° |
| 2026-05-04 19:01 | 52.07884 | 2.24950 | 21592 ft | 487 kts | 77° |
| 2026-05-04 19:02 | 52.08690 | 2.30265 | 21878 ft | 470 kts | 77° |
| 2026-05-04 19:02 | 52.09493 | 2.35589 | 22168 ft | 472 kts | 77° |
| 2026-05-04 19:02 | 52.10296 | 2.40914 | 22435 ft | 480 kts | 77° |
| 2026-05-04 19:02 | 52.11090 | 2.46244 | 22712 ft | 491 kts | 77° |
| 2026-05-04 19:03 | 52.12082 | 2.51572 | 22971 ft | 503 kts | 70° |
| 2026-05-04 19:03 | 52.13213 | 2.56867 | 23241 ft | 510 kts | 73° |
| 2026-05-04 19:03 | 52.14222 | 2.62269 | 23497 ft | 476 kts | 74° |
| 2026-05-04 19:03 | 52.15195 | 2.67705 | 23758 ft | 525 kts | 75° |
| 2026-05-04 19:04 | 52.16169 | 2.73131 | 24013 ft | 491 kts | 75° |
| 2026-05-04 19:04 | 52.17165 | 2.78605 | 24269 ft | 511 kts | 74° |
| 2026-05-04 19:04 | 52.18184 | 2.84148 | 24518 ft | 522 kts | 74° |
| 2026-05-04 19:04 | 52.19213 | 2.89657 | 24773 ft | 517 kts | 74° |
| 2026-05-04 19:05 | 52.20254 | 2.95180 | 25018 ft | 511 kts | 74° |
| 2026-05-04 19:05 | 52.21303 | 3.00792 | 25261 ft | 525 kts | 75° |
| 2026-05-04 19:05 | 52.22345 | 3.06365 | 25501 ft | 506 kts | 75° |
| 2026-05-04 19:05 | 52.23387 | 3.11968 | 25739 ft | 500 kts | 75° |
| 2026-05-04 19:06 | 52.24433 | 3.17610 | 25968 ft | 515 kts | 75° |
| 2026-05-04 19:06 | 52.25278 | 3.23326 | 26181 ft | 537 kts | 85° |
| 2026-05-04 19:06 | 52.25332 | 3.29147 | 26474 ft | 487 kts | 97° |
| 2026-05-04 19:06 | 52.24955 | 3.34955 | 26699 ft | 546 kts | 100° |
| 2026-05-04 19:07 | 52.24458 | 3.40761 | 26993 ft | 522 kts | 101° |
| 2026-05-04 19:07 | 52.23936 | 3.46427 | 27317 ft | 515 kts | 102° |
| 2026-05-04 19:07 | 52.23411 | 3.52153 | 27623 ft | 512 kts | 101° |
| 2026-05-04 19:07 | 52.22911 | 3.57914 | 27955 ft | 530 kts | 101° |
| 2026-05-04 19:08 | 52.22421 | 3.63685 | 28293 ft | 516 kts | 101° |
| 2026-05-04 19:08 | 52.21943 | 3.69421 | 28621 ft | 509 kts | 101° |
| 2026-05-04 19:08 | 52.21476 | 3.75067 | 28913 ft | 508 kts | 101° |
| 2026-05-04 19:08 | 52.21001 | 3.80739 | 29005 ft | 511 kts | 101° |
| 2026-05-04 19:09 | 52.20044 | 3.92158 | 29002 ft | 537 kts | 101° |
| 2026-05-04 19:09 | 52.19558 | 3.97872 | 29002 ft | 495 kts | 101° |
| 2026-05-04 19:09 | 52.19072 | 4.03522 | 28997 ft | 535 kts | 102° |
| 2026-05-04 19:10 | 52.18584 | 4.09188 | 28994 ft | 507 kts | 102° |
| 2026-05-04 19:10 | 52.18092 | 4.14859 | 28988 ft | 500 kts | 102° |
| 2026-05-04 19:10 | 52.17599 | 4.20514 | 28989 ft | 518 kts | 102° |
| 2026-05-04 19:10 | 52.17103 | 4.26157 | 28982 ft | 535 kts | 102° |
| 2026-05-04 19:11 | 52.16602 | 4.31794 | 28977 ft | 509 kts | 102° |
| 2026-05-04 19:11 | 52.16101 | 4.37497 | 28969 ft | 525 kts | 102° |
| 2026-05-04 19:11 | 52.15595 | 4.43125 | 28968 ft | 509 kts | 102° |
| 2026-05-04 19:11 | 52.15084 | 4.48803 | 28965 ft | 508 kts | 102° |
| 2026-05-04 19:12 | 52.13628 | 4.64895 | 28975 ft | 510 kts | 102° |
| 2026-05-04 19:12 | 52.13110 | 4.70557 | 28978 ft | 495 kts | 102° |
| 2026-05-04 19:13 | 52.12586 | 4.76206 | 28982 ft | 521 kts | 102° |
| 2026-05-04 19:13 | 52.11533 | 4.87586 | 28983 ft | 487 kts | 102° |
| 2026-05-04 19:13 | 52.11008 | 4.93246 | 28981 ft | 552 kts | 102° |
| 2026-05-04 19:14 | 52.10461 | 4.98899 | 28975 ft | 516 kts | 103° |
| 2026-05-04 19:14 | 52.09331 | 5.10197 | 28971 ft | 492 kts | 103° |
| 2026-05-04 19:15 | 52.08181 | 5.21554 | 28963 ft | 512 kts | 103° |
| 2026-05-04 19:15 | 52.07025 | 5.32885 | 28962 ft | 501 kts | 103° |
| 2026-05-04 19:15 | 52.06445 | 5.38535 | 28952 ft | 514 kts | 103° |
| 2026-05-04 19:16 | 52.05864 | 5.44185 | 28999 ft | 496 kts | 103° |
| 2026-05-04 19:16 | 52.05277 | 5.49873 | 29225 ft | 514 kts | 103° |
| 2026-05-04 19:16 | 52.04689 | 5.55535 | 29404 ft | 509 kts | 103° |
| 2026-05-04 19:16 | 52.04089 | 5.61226 | 29590 ft | 518 kts | 103° |
| 2026-05-04 19:17 | 52.03477 | 5.66984 | 29775 ft | 515 kts | 103° |
| 2026-05-04 19:17 | 52.02881 | 5.72631 | 29952 ft | 522 kts | 103° |
| 2026-05-04 19:17 | 52.02270 | 5.78414 | 30140 ft | 505 kts | 103° |
| 2026-05-04 19:17 | 52.01669 | 5.84117 | 30317 ft | 514 kts | 103° |
| 2026-05-04 19:18 | 52.01053 | 5.89889 | 30490 ft | 526 kts | 103° |
| 2026-05-04 19:18 | 52.00438 | 5.95656 | 30668 ft | 502 kts | 103° |